Terminal Aerodrome Forecast
Issued by NWS North Platte, NE

Home | Current Version | Previous Version | Graphics & Text | Print | Product List | Glossary On
Versions: 1 2 3 4 5 6 7 8 9 10 11 12 13 14
000
FTUS43 KLBF 230300 AAA
TAFVTN
TAF AMD
KVTN 230303Z 2303/2324 14012KT P6SM BKN150
     FM230600 15018G25KT P6SM BKN120
     FM231400 19018G25KT P6SM BKN120
     FM231700 23017G25KT P6SM BKN100
     FM231900 33015G25KT P6SM BKN100=

USA.gov is the U.S. government's official web portal to all federal, state and local government web resources and services.